Terminal Aerodrome Forecast
Issued by NWS

Home | Current Version | Previous Version | Text Only | Print | Product List | Glossary On
Versions: 1 2 3 4 5 6 7 8 9 10 11 12 13 14 15 16 17 18 19 20 21 22 23 24 25 26 27 28
000
FTUS41 KOKX 212300
TAFSWF
TAF
KSWF 212332Z 2200/2306 VRB05KT P6SM VCSH SCT015 BKN050
     FM220400 04007KT 6SM -SHRA SCT015 BKN035
     FM221000 04009KT 4SM BR VCSH BKN015
     FM221700 03010G17KT 4SM BR VCSH BKN020
     FM230200 01013G22KT 5SM -RA BR BKN015
      AMD NOT SKED=

USA.gov is the U.S. government's official web portal to all federal, state and local government web resources and services.